sensor_id;sensor_type;location;lat;lon;timestamp;P1;durP1;ratioP1;P2;durP2;ratioP2
30763;SDS011;17497;51.476;7.770;2023-08-06T00:01:40;0.40;;;0.40;;
30763;SDS011;17497;51.476;7.770;2023-08-06T00:04:07;0.40;;;0.40;;
30763;SDS011;17497;51.476;7.770;2023-08-06T00:06:34;0.30;;;0.30;;
30763;SDS011;17497;51.476;7.770;2023-08-06T00:09:07;0.30;;;0.30;;
30763;SDS011;17497;51.476;7.770;2023-08-06T00:11:39;0.40;;;0.40;;
30763;SDS011;17497;51.476;7.770;2023-08-06T00:14:07;0.40;;;0.40;;
30763;SDS011;17497;51.476;7.770;2023-08-06T00:16:34;0.30;;;0.30;;
30763;SDS011;17497;51.476;7.770;2023-08-06T00:19:03;0.30;;;0.30;;
30763;SDS011;17497;51.476;7.770;2023-08-06T00:21:30;0.40;;;0.40;;
30763;SDS011;17497;51.476;7.770;2023-08-06T00:23:57;0.40;;;0.40;;
30763;SDS011;17497;51.476;7.770;2023-08-06T00:26:26;0.30;;;0.30;;
30763;SDS011;17497;51.476;7.770;2023-08-06T00:28:55;0.40;;;0.40;;
30763;SDS011;17497;51.476;7.770;2023-08-06T00:31:29;0.40;;;0.40;;
30763;SDS011;17497;51.476;7.770;2023-08-06T00:33:59;0.40;;;0.40;;
30763;SDS011;17497;51.476;7.770;2023-08-06T00:36:32;0.30;;;0.30;;
30763;SDS011;17497;51.476;7.770;2023-08-06T00:38:59;0.35;;;0.35;;
30763;SDS011;17497;51.476;7.770;2023-08-06T00:41:27;0.30;;;0.30;;
30763;SDS011;17497;51.476;7.770;2023-08-06T00:43:54;0.40;;;0.40;;
30763;SDS011;17497;51.476;7.770;2023-08-06T00:46:23;0.40;;;0.40;;
30763;SDS011;17497;51.476;7.770;2023-08-06T00:48:51;0.40;;;0.40;;
30763;SDS011;17497;51.476;7.770;2023-08-06T00:51:22;0.40;;;0.40;;
30763;SDS011;17497;51.476;7.770;2023-08-06T00:53:49;0.30;;;0.30;;
30763;SDS011;17497;51.476;7.770;2023-08-06T00:56:25;0.40;;;0.40;;
30763;SDS011;17497;51.476;7.770;2023-08-06T00:58:56;0.30;;;0.30;;
30763;SDS011;17497;51.476;7.770;2023-08-06T01:01:24;0.40;;;0.40;;
30763;SDS011;17497;51.476;7.770;2023-08-06T01:03:51;0.40;;;0.40;;
30763;SDS011;17497;51.476;7.770;2023-08-06T01:06:23;0.38;;;0.38;;
30763;SDS011;17497;51.476;7.770;2023-08-06T01:09:15;0.40;;;0.40;;
30763;SDS011;17497;51.476;7.770;2023-08-06T01:17:25;0.40;;;0.40;;
30763;SDS011;17497;51.476;7.770;2023-08-06T01:19:54;0.30;;;0.30;;
30763;SDS011;17497;51.476;7.770;2023-08-06T01:22:27;0.38;;;0.38;;
30763;SDS011;17497;51.476;7.770;2023-08-06T01:24:59;0.40;;;0.40;;
30763;SDS011;17497;51.476;7.770;2023-08-06T01:27:28;0.40;;;0.40;;
30763;SDS011;17497;51.476;7.770;2023-08-06T01:33:07;0.40;;;0.40;;
30763;SDS011;17497;51.476;7.770;2023-08-06T01:35:43;0.30;;;0.30;;
30763;SDS011;17497;51.476;7.770;2023-08-06T01:38:12;0.40;;;0.40;;
30763;SDS011;17497;51.476;7.770;2023-08-06T01:40:39;0.40;;;0.40;;
30763;SDS011;17497;51.476;7.770;2023-08-06T01:43:06;0.30;;;0.30;;
30763;SDS011;17497;51.476;7.770;2023-08-06T01:45:33;0.40;;;0.40;;
30763;SDS011;17497;51.476;7.770;2023-08-06T01:48:00;0.40;;;0.40;;
30763;SDS011;17497;51.476;7.770;2023-08-06T01:50:29;0.40;;;0.40;;
30763;SDS011;17497;51.476;7.770;2023-08-06T01:52:56;0.40;;;0.40;;
30763;SDS011;17497;51.476;7.770;2023-08-06T01:55:23;0.40;;;0.40;;
30763;SDS011;17497;51.476;7.770;2023-08-06T01:57:52;0.40;;;0.40;;
30763;SDS011;17497;51.476;7.770;2023-08-06T02:00:19;0.30;;;0.30;;
30763;SDS011;17497;51.476;7.770;2023-08-06T02:02:46;0.40;;;0.40;;
30763;SDS011;17497;51.476;7.770;2023-08-06T02:05:13;0.40;;;0.40;;
30763;SDS011;17497;51.476;7.770;2023-08-06T02:07:40;0.40;;;0.40;;
30763;SDS011;17497;51.476;7.770;2023-08-06T02:10:07;0.40;;;0.40;;
30763;SDS011;17497;51.476;7.770;2023-08-06T02:12:38;0.40;;;0.40;;
30763;SDS011;17497;51.476;7.770;2023-08-06T02:15:08;0.40;;;0.40;;
30763;SDS011;17497;51.476;7.770;2023-08-06T02:17:36;0.40;;;0.40;;
30763;SDS011;17497;51.476;7.770;2023-08-06T02:20:05;0.40;;;0.40;;
30763;SDS011;17497;51.476;7.770;2023-08-06T02:22:38;0.30;;;0.30;;
30763;SDS011;17497;51.476;7.770;2023-08-06T02:25:05;0.40;;;0.40;;
30763;SDS011;17497;51.476;7.770;2023-08-06T02:27:32;0.40;;;0.40;;
30763;SDS011;17497;51.476;7.770;2023-08-06T02:30:01;0.40;;;0.40;;
30763;SDS011;17497;51.476;7.770;2023-08-06T02:32:31;0.40;;;0.40;;
30763;SDS011;17497;51.476;7.770;2023-08-06T02:35:01;0.30;;;0.30;;
30763;SDS011;17497;51.476;7.770;2023-08-06T02:37:41;0.40;;;0.40;;
30763;SDS011;17497;51.476;7.770;2023-08-06T02:40:17;0.40;;;0.40;;
30763;SDS011;17497;51.476;7.770;2023-08-06T02:42:53;0.40;;;0.40;;
30763;SDS011;17497;51.476;7.770;2023-08-06T02:45:22;0.35;;;0.35;;
30763;SDS011;17497;51.476;7.770;2023-08-06T02:47:57;0.40;;;0.40;;
30763;SDS011;17497;51.476;7.770;2023-08-06T02:50:25;0.30;;;0.30;;
30763;SDS011;17497;51.476;7.770;2023-08-06T02:52:55;0.40;;;0.40;;
30763;SDS011;17497;51.476;7.770;2023-08-06T02:55:25;0.40;;;0.40;;
30763;SDS011;17497;51.476;7.770;2023-08-06T02:57:58;0.40;;;0.40;;
30763;SDS011;17497;51.476;7.770;2023-08-06T03:00:34;0.30;;;0.30;;
30763;SDS011;17497;51.476;7.770;2023-08-06T03:03:02;0.30;;;0.30;;
30763;SDS011;17497;51.476;7.770;2023-08-06T03:05:29;0.30;;;0.30;;
30763;SDS011;17497;51.476;7.770;2023-08-06T03:08:04;0.40;;;0.40;;
30763;SDS011;17497;51.476;7.770;2023-08-06T03:10:32;0.40;;;0.40;;
30763;SDS011;17497;51.476;7.770;2023-08-06T03:13:01;0.40;;;0.40;;
30763;SDS011;17497;51.476;7.770;2023-08-06T03:15:35;0.40;;;0.40;;
30763;SDS011;17497;51.476;7.770;2023-08-06T03:18:31;0.40;;;0.40;;
30763;SDS011;17497;51.476;7.770;2023-08-06T03:20:58;0.40;;;0.40;;
30763;SDS011;17497;51.476;7.770;2023-08-06T03:23:26;0.30;;;0.30;;
30763;SDS011;17497;51.476;7.770;2023-08-06T03:26:04;0.40;;;0.40;;
30763;SDS011;17497;51.476;7.770;2023-08-06T03:28:38;0.38;;;0.38;;
30763;SDS011;17497;51.476;7.770;2023-08-06T03:31:05;0.30;;;0.30;;
30763;SDS011;17497;51.476;7.770;2023-08-06T03:33:33;0.40;;;0.40;;
30763;SDS011;17497;51.476;7.770;2023-08-06T03:36:09;0.40;;;0.40;;
30763;SDS011;17497;51.476;7.770;2023-08-06T03:38:36;0.47;;;0.47;;
30763;SDS011;17497;51.476;7.770;2023-08-06T03:41:03;0.40;;;0.40;;
30763;SDS011;17497;51.476;7.770;2023-08-06T03:43:31;0.40;;;0.40;;
30763;SDS011;17497;51.476;7.770;2023-08-06T03:46:04;0.40;;;0.40;;
30763;SDS011;17497;51.476;7.770;2023-08-06T03:48:31;0.40;;;0.40;;
30763;SDS011;17497;51.476;7.770;2023-08-06T03:50:57;0.40;;;0.40;;
30763;SDS011;17497;51.476;7.770;2023-08-06T03:53:27;0.40;;;0.40;;
30763;SDS011;17497;51.476;7.770;2023-08-06T03:55:54;0.40;;;0.40;;
30763;SDS011;17497;51.476;7.770;2023-08-06T03:58:25;0.40;;;0.40;;
30763;SDS011;17497;51.476;7.770;2023-08-06T04:01:02;0.40;;;0.40;;
30763;SDS011;17497;51.476;7.770;2023-08-06T04:03:32;0.40;;;0.40;;
30763;SDS011;17497;51.476;7.770;2023-08-06T04:06:03;0.40;;;0.40;;
30763;SDS011;17497;51.476;7.770;2023-08-06T04:08:39;0.50;;;0.50;;
30763;SDS011;17497;51.476;7.770;2023-08-06T04:11:06;0.40;;;0.40;;
30763;SDS011;17497;51.476;7.770;2023-08-06T04:13:33;0.50;;;0.50;;
30763;SDS011;17497;51.476;7.770;2023-08-06T04:18:31;0.40;;;0.40;;
30763;SDS011;17497;51.476;7.770;2023-08-06T04:21:08;0.50;;;0.50;;
30763;SDS011;17497;51.476;7.770;2023-08-06T04:23:48;0.40;;;0.40;;
30763;SDS011;17497;51.476;7.770;2023-08-06T04:26:23;0.40;;;0.40;;
30763;SDS011;17497;51.476;7.770;2023-08-06T04:28:53;0.40;;;0.40;;
30763;SDS011;17497;51.476;7.770;2023-08-06T04:31:23;0.40;;;0.40;;
30763;SDS011;17497;51.476;7.770;2023-08-06T04:33:50;0.40;;;0.40;;
30763;SDS011;17497;51.476;7.770;2023-08-06T04:36:20;0.40;;;0.40;;
30763;SDS011;17497;51.476;7.770;2023-08-06T04:38:49;0.40;;;0.40;;
30763;SDS011;17497;51.476;7.770;2023-08-06T04:41:19;0.40;;;0.40;;
30763;SDS011;17497;51.476;7.770;2023-08-06T04:43:46;0.50;;;0.50;;
30763;SDS011;17497;51.476;7.770;2023-08-06T04:46:13;0.40;;;0.40;;
30763;SDS011;17497;51.476;7.770;2023-08-06T04:48:40;0.30;;;0.30;;
30763;SDS011;17497;51.476;7.770;2023-08-06T04:51:07;0.40;;;0.40;;
30763;SDS011;17497;51.476;7.770;2023-08-06T04:53:34;0.40;;;0.40;;
30763;SDS011;17497;51.476;7.770;2023-08-06T04:56:01;0.40;;;0.40;;
30763;SDS011;17497;51.476;7.770;2023-08-06T04:58:28;0.40;;;0.40;;
30763;SDS011;17497;51.476;7.770;2023-08-06T05:00:55;0.40;;;0.40;;
30763;SDS011;17497;51.476;7.770;2023-08-06T05:03:22;0.30;;;0.30;;
30763;SDS011;17497;51.476;7.770;2023-08-06T05:05:49;0.40;;;0.40;;
30763;SDS011;17497;51.476;7.770;2023-08-06T05:08:16;0.40;;;0.40;;
30763;SDS011;17497;51.476;7.770;2023-08-06T05:10:44;0.40;;;0.40;;
30763;SDS011;17497;51.476;7.770;2023-08-06T05:13:11;0.30;;;0.30;;
30763;SDS011;17497;51.476;7.770;2023-08-06T05:15:39;0.33;;;0.33;;
30763;SDS011;17497;51.476;7.770;2023-08-06T05:18:12;0.32;;;0.32;;
30763;SDS011;17497;51.476;7.770;2023-08-06T05:20:41;0.30;;;0.30;;
30763;SDS011;17497;51.476;7.770;2023-08-06T05:23:08;0.30;;;0.30;;
30763;SDS011;17497;51.476;7.770;2023-08-06T05:25:35;0.30;;;0.30;;
30763;SDS011;17497;51.476;7.770;2023-08-06T05:28:03;0.40;;;0.40;;
30763;SDS011;17497;51.476;7.770;2023-08-06T05:30:30;0.40;;;0.40;;
30763;SDS011;17497;51.476;7.770;2023-08-06T05:32:57;0.40;;;0.40;;
30763;SDS011;17497;51.476;7.770;2023-08-06T05:35:24;0.40;;;0.40;;
30763;SDS011;17497;51.476;7.770;2023-08-06T05:37:52;0.40;;;0.40;;
30763;SDS011;17497;51.476;7.770;2023-08-06T05:40:19;0.40;;;0.40;;
30763;SDS011;17497;51.476;7.770;2023-08-06T05:42:46;0.30;;;0.30;;
30763;SDS011;17497;51.476;7.770;2023-08-06T05:45:13;0.40;;;0.40;;
30763;SDS011;17497;51.476;7.770;2023-08-06T05:47:43;0.35;;;0.35;;
30763;SDS011;17497;51.476;7.770;2023-08-06T05:50:10;0.40;;;0.40;;
30763;SDS011;17497;51.476;7.770;2023-08-06T05:52:37;0.40;;;0.40;;
30763;SDS011;17497;51.476;7.770;2023-08-06T05:55:04;0.30;;;0.30;;
30763;SDS011;17497;51.476;7.770;2023-08-06T05:59:59;0.38;;;0.38;;
30763;SDS011;17497;51.476;7.770;2023-08-06T06:02:52;0.38;;;0.38;;
30763;SDS011;17497;51.476;7.770;2023-08-06T06:05:25;0.28;;;0.28;;
30763;SDS011;17497;51.476;7.770;2023-08-06T06:07:53;0.40;;;0.40;;
30763;SDS011;17497;51.476;7.770;2023-08-06T06:10:20;0.30;;;0.30;;
30763;SDS011;17497;51.476;7.770;2023-08-06T06:12:49;0.40;;;0.40;;
30763;SDS011;17497;51.476;7.770;2023-08-06T06:15:17;0.40;;;0.40;;
30763;SDS011;17497;51.476;7.770;2023-08-06T06:17:50;0.40;;;0.40;;
30763;SDS011;17497;51.476;7.770;2023-08-06T06:20:39;0.40;;;0.40;;
30763;SDS011;17497;51.476;7.770;2023-08-06T06:23:10;0.40;;;0.40;;
30763;SDS011;17497;51.476;7.770;2023-08-06T06:25:47;0.40;;;0.40;;
30763;SDS011;17497;51.476;7.770;2023-08-06T06:28:22;0.40;;;0.40;;
30763;SDS011;17497;51.476;7.770;2023-08-06T06:30:59;0.40;;;0.40;;
30763;SDS011;17497;51.476;7.770;2023-08-06T06:33:27;0.30;;;0.30;;
30763;SDS011;17497;51.476;7.770;2023-08-06T06:35:55;0.40;;;0.40;;
30763;SDS011;17497;51.476;7.770;2023-08-06T06:38:34;0.40;;;0.40;;
30763;SDS011;17497;51.476;7.770;2023-08-06T06:41:01;0.40;;;0.40;;
30763;SDS011;17497;51.476;7.770;2023-08-06T06:43:31;0.30;;;0.30;;
30763;SDS011;17497;51.476;7.770;2023-08-06T06:45:59;0.32;;;0.32;;
30763;SDS011;17497;51.476;7.770;2023-08-06T06:48:30;0.40;;;0.40;;
30763;SDS011;17497;51.476;7.770;2023-08-06T06:50:58;0.30;;;0.30;;
30763;SDS011;17497;51.476;7.770;2023-08-06T06:53:33;0.32;;;0.32;;
30763;SDS011;17497;51.476;7.770;2023-08-06T06:56:05;0.30;;;0.30;;
30763;SDS011;17497;51.476;7.770;2023-08-06T06:58:32;0.40;;;0.40;;
30763;SDS011;17497;51.476;7.770;2023-08-06T07:01:03;0.30;;;0.30;;
30763;SDS011;17497;51.476;7.770;2023-08-06T07:03:32;0.30;;;0.30;;
30763;SDS011;17497;51.476;7.770;2023-08-06T07:06:12;0.40;;;0.40;;
30763;SDS011;17497;51.476;7.770;2023-08-06T07:08:45;0.30;;;0.30;;
30763;SDS011;17497;51.476;7.770;2023-08-06T07:11:15;0.30;;;0.30;;
30763;SDS011;17497;51.476;7.770;2023-08-06T07:13:45;0.30;;;0.30;;
30763;SDS011;17497;51.476;7.770;2023-08-06T07:16:12;0.30;;;0.30;;
30763;SDS011;17497;51.476;7.770;2023-08-06T07:18:39;0.30;;;0.30;;
30763;SDS011;17497;51.476;7.770;2023-08-06T07:21:06;0.40;;;0.40;;
30763;SDS011;17497;51.476;7.770;2023-08-06T07:23:55;0.30;;;0.30;;
30763;SDS011;17497;51.476;7.770;2023-08-06T07:26:35;0.30;;;0.30;;
30763;SDS011;17497;51.476;7.770;2023-08-06T07:29:12;0.30;;;0.30;;
30763;SDS011;17497;51.476;7.770;2023-08-06T07:31:40;0.32;;;0.32;;
30763;SDS011;17497;51.476;7.770;2023-08-06T07:34:09;0.28;;;0.28;;
30763;SDS011;17497;51.476;7.770;2023-08-06T07:36:43;0.30;;;0.30;;
30763;SDS011;17497;51.476;7.770;2023-08-06T07:40:00;0.30;;;0.30;;
30763;SDS011;17497;51.476;7.770;2023-08-06T07:42:33;0.30;;;0.30;;
30763;SDS011;17497;51.476;7.770;2023-08-06T08:11:09;0.30;;;0.30;;
30763;SDS011;17497;51.476;7.770;2023-08-06T08:22:03;0.30;;;0.30;;
30763;SDS011;17497;51.476;7.770;2023-08-06T08:28:19;0.28;;;0.28;;
30763;SDS011;17497;51.476;7.770;2023-08-06T08:30:55;0.30;;;0.30;;
30763;SDS011;17497;51.476;7.770;2023-08-06T08:33:27;0.20;;;0.20;;
30763;SDS011;17497;51.476;7.770;2023-08-06T08:35:56;0.30;;;0.30;;
30763;SDS011;17497;51.476;7.770;2023-08-06T08:38:32;0.30;;;0.30;;
30763;SDS011;17497;51.476;7.770;2023-08-06T08:41:03;0.30;;;0.30;;
30763;SDS011;17497;51.476;7.770;2023-08-06T08:43:30;0.30;;;0.30;;
30763;SDS011;17497;51.476;7.770;2023-08-06T08:45:57;0.30;;;0.30;;
30763;SDS011;17497;51.476;7.770;2023-08-06T08:48:30;0.20;;;0.20;;
30763;SDS011;17497;51.476;7.770;2023-08-06T08:50:57;0.20;;;0.20;;
30763;SDS011;17497;51.476;7.770;2023-08-06T08:53:28;0.30;;;0.30;;
30763;SDS011;17497;51.476;7.770;2023-08-06T08:55:55;0.30;;;0.30;;
30763;SDS011;17497;51.476;7.770;2023-08-06T08:58:22;0.30;;;0.30;;
30763;SDS011;17497;51.476;7.770;2023-08-06T09:00:49;0.30;;;0.30;;
30763;SDS011;17497;51.476;7.770;2023-08-06T09:03:18;0.30;;;0.30;;
30763;SDS011;17497;51.476;7.770;2023-08-06T09:05:54;0.30;;;0.30;;
30763;SDS011;17497;51.476;7.770;2023-08-06T09:08:24;0.20;;;0.20;;
30763;SDS011;17497;51.476;7.770;2023-08-06T09:10:59;0.30;;;0.30;;
30763;SDS011;17497;51.476;7.770;2023-08-06T09:13:29;0.30;;;0.30;;
30763;SDS011;17497;51.476;7.770;2023-08-06T09:15:56;0.30;;;0.30;;
30763;SDS011;17497;51.476;7.770;2023-08-06T09:18:26;0.30;;;0.30;;
30763;SDS011;17497;51.476;7.770;2023-08-06T09:20:55;0.30;;;0.30;;
30763;SDS011;17497;51.476;7.770;2023-08-06T09:23:32;0.30;;;0.30;;
30763;SDS011;17497;51.476;7.770;2023-08-06T09:26:02;0.25;;;0.25;;
30763;SDS011;17497;51.476;7.770;2023-08-06T09:28:38;0.30;;;0.30;;
30763;SDS011;17497;51.476;7.770;2023-08-06T09:31:06;0.30;;;0.30;;
30763;SDS011;17497;51.476;7.770;2023-08-06T09:33:43;0.20;;;0.20;;
30763;SDS011;17497;51.476;7.770;2023-08-06T09:36:11;0.30;;;0.30;;
30763;SDS011;17497;51.476;7.770;2023-08-06T09:38:39;0.30;;;0.30;;
30763;SDS011;17497;51.476;7.770;2023-08-06T09:41:07;0.30;;;0.30;;
30763;SDS011;17497;51.476;7.770;2023-08-06T09:43:41;0.30;;;0.30;;
30763;SDS011;17497;51.476;7.770;2023-08-06T09:46:18;0.22;;;0.22;;
30763;SDS011;17497;51.476;7.770;2023-08-06T09:48:48;0.30;;;0.30;;
30763;SDS011;17497;51.476;7.770;2023-08-06T09:51:20;0.25;;;0.25;;
30763;SDS011;17497;51.476;7.770;2023-08-06T09:53:57;0.30;;;0.30;;
30763;SDS011;17497;51.476;7.770;2023-08-06T09:56:26;0.20;;;0.20;;
30763;SDS011;17497;51.476;7.770;2023-08-06T09:58:54;0.30;;;0.30;;
30763;SDS011;17497;51.476;7.770;2023-08-06T10:01:22;0.30;;;0.30;;
30763;SDS011;17497;51.476;7.770;2023-08-06T10:03:49;0.30;;;0.30;;
30763;SDS011;17497;51.476;7.770;2023-08-06T10:06:18;0.30;;;0.30;;
30763;SDS011;17497;51.476;7.770;2023-08-06T10:08:54;0.20;;;0.20;;
30763;SDS011;17497;51.476;7.770;2023-08-06T10:11:25;0.30;;;0.30;;
30763;SDS011;17497;51.476;7.770;2023-08-06T10:13:53;0.30;;;0.30;;
30763;SDS011;17497;51.476;7.770;2023-08-06T10:16:24;0.30;;;0.30;;
30763;SDS011;17497;51.476;7.770;2023-08-06T10:18:55;0.20;;;0.20;;
30763;SDS011;17497;51.476;7.770;2023-08-06T10:21:55;0.30;;;0.30;;
30763;SDS011;17497;51.476;7.770;2023-08-06T10:24:52;0.30;;;0.30;;
30763;SDS011;17497;51.476;7.770;2023-08-06T10:27:41;0.30;;;0.30;;
30763;SDS011;17497;51.476;7.770;2023-08-06T10:30:27;0.30;;;0.30;;
30763;SDS011;17497;51.476;7.770;2023-08-06T10:32:57;0.20;;;0.20;;
30763;SDS011;17497;51.476;7.770;2023-08-06T10:37:54;0.30;;;0.30;;
30763;SDS011;17497;51.476;7.770;2023-08-06T10:40:24;0.30;;;0.30;;
30763;SDS011;17497;51.476;7.770;2023-08-06T10:42:52;0.30;;;0.30;;
30763;SDS011;17497;51.476;7.770;2023-08-06T10:45:19;0.30;;;0.30;;
30763;SDS011;17497;51.476;7.770;2023-08-06T10:47:50;0.30;;;0.30;;
30763;SDS011;17497;51.476;7.770;2023-08-06T10:50:40;0.30;;;0.30;;
30763;SDS011;17497;51.476;7.770;2023-08-06T10:53:11;0.30;;;0.30;;
30763;SDS011;17497;51.476;7.770;2023-08-06T10:55:39;0.30;;;0.30;;
30763;SDS011;17497;51.476;7.770;2023-08-06T10:58:06;0.30;;;0.30;;
30763;SDS011;17497;51.476;7.770;2023-08-06T11:00:45;0.30;;;0.30;;
30763;SDS011;17497;51.476;7.770;2023-08-06T11:03:12;0.30;;;0.30;;
30763;SDS011;17497;51.476;7.770;2023-08-06T11:05:41;0.30;;;0.30;;
30763;SDS011;17497;51.476;7.770;2023-08-06T11:08:22;0.30;;;0.30;;
30763;SDS011;17497;51.476;7.770;2023-08-06T11:10:51;0.30;;;0.30;;
30763;SDS011;17497;51.476;7.770;2023-08-06T11:13:29;0.40;;;0.40;;
30763;SDS011;17497;51.476;7.770;2023-08-06T11:16:03;0.30;;;0.30;;
30763;SDS011;17497;51.476;7.770;2023-08-06T11:18:34;0.30;;;0.30;;
30763;SDS011;17497;51.476;7.770;2023-08-06T11:21:02;0.30;;;0.30;;
30763;SDS011;17497;51.476;7.770;2023-08-06T11:23:32;0.33;;;0.33;;
30763;SDS011;17497;51.476;7.770;2023-08-06T11:26:03;0.30;;;0.30;;
30763;SDS011;17497;51.476;7.770;2023-08-06T11:28:35;0.30;;;0.30;;
30763;SDS011;17497;51.476;7.770;2023-08-06T11:31:02;0.30;;;0.30;;
30763;SDS011;17497;51.476;7.770;2023-08-06T11:33:32;0.30;;;0.30;;
30763;SDS011;17497;51.476;7.770;2023-08-06T11:35:59;0.30;;;0.30;;
30763;SDS011;17497;51.476;7.770;2023-08-06T11:38:29;0.30;;;0.30;;
30763;SDS011;17497;51.476;7.770;2023-08-06T11:41:13;0.25;;;0.25;;
30763;SDS011;17497;51.476;7.770;2023-08-06T11:43:45;0.28;;;0.28;;
30763;SDS011;17497;51.476;7.770;2023-08-06T11:46:16;0.20;;;0.20;;
30763;SDS011;17497;51.476;7.770;2023-08-06T11:48:54;0.20;;;0.20;;
30763;SDS011;17497;51.476;7.770;2023-08-06T11:51:25;0.30;;;0.30;;
30763;SDS011;17497;51.476;7.770;2023-08-06T11:53:58;0.30;;;0.30;;
30763;SDS011;17497;51.476;7.770;2023-08-06T11:56:28;0.30;;;0.30;;
30763;SDS011;17497;51.476;7.770;2023-08-06T11:58:55;0.30;;;0.30;;
30763;SDS011;17497;51.476;7.770;2023-08-06T12:01:22;0.30;;;0.30;;
30763;SDS011;17497;51.476;7.770;2023-08-06T12:03:49;0.30;;;0.30;;
30763;SDS011;17497;51.476;7.770;2023-08-06T12:06:26;0.20;;;0.20;;
30763;SDS011;17497;51.476;7.770;2023-08-06T12:08:54;0.30;;;0.30;;
30763;SDS011;17497;51.476;7.770;2023-08-06T12:11:21;0.22;;;0.22;;
30763;SDS011;17497;51.476;7.770;2023-08-06T12:13:51;0.30;;;0.30;;
30763;SDS011;17497;51.476;7.770;2023-08-06T12:16:18;0.30;;;0.30;;
30763;SDS011;17497;51.476;7.770;2023-08-06T12:18:47;0.30;;;0.30;;
30763;SDS011;17497;51.476;7.770;2023-08-06T12:21:15;0.30;;;0.30;;
30763;SDS011;17497;51.476;7.770;2023-08-06T12:23:42;0.30;;;0.30;;
30763;SDS011;17497;51.476;7.770;2023-08-06T12:26:09;0.30;;;0.30;;
30763;SDS011;17497;51.476;7.770;2023-08-06T12:28:36;0.30;;;0.30;;
30763;SDS011;17497;51.476;7.770;2023-08-06T12:31:03;0.30;;;0.30;;
30763;SDS011;17497;51.476;7.770;2023-08-06T12:33:30;0.30;;;0.30;;
30763;SDS011;17497;51.476;7.770;2023-08-06T12:35:58;0.40;;;0.40;;
30763;SDS011;17497;51.476;7.770;2023-08-06T12:38:27;0.30;;;0.30;;
30763;SDS011;17497;51.476;7.770;2023-08-06T12:40:58;0.35;;;0.35;;
30763;SDS011;17497;51.476;7.770;2023-08-06T12:43:31;0.30;;;0.30;;
30763;SDS011;17497;51.476;7.770;2023-08-06T12:46:00;0.30;;;0.30;;
30763;SDS011;17497;51.476;7.770;2023-08-06T12:48:27;0.30;;;0.30;;
30763;SDS011;17497;51.476;7.770;2023-08-06T12:50:54;0.30;;;0.30;;
30763;SDS011;17497;51.476;7.770;2023-08-06T12:53:21;0.30;;;0.30;;
30763;SDS011;17497;51.476;7.770;2023-08-06T12:55:49;0.30;;;0.30;;
30763;SDS011;17497;51.476;7.770;2023-08-06T12:58:19;0.30;;;0.30;;
30763;SDS011;17497;51.476;7.770;2023-08-06T13:00:46;0.30;;;0.30;;
30763;SDS011;17497;51.476;7.770;2023-08-06T13:03:13;0.30;;;0.30;;
30763;SDS011;17497;51.476;7.770;2023-08-06T13:05:40;0.30;;;0.30;;
30763;SDS011;17497;51.476;7.770;2023-08-06T13:08:07;0.30;;;0.30;;
30763;SDS011;17497;51.476;7.770;2023-08-06T13:10:44;0.30;;;0.30;;
30763;SDS011;17497;51.476;7.770;2023-08-06T13:13:17;0.30;;;0.30;;
30763;SDS011;17497;51.476;7.770;2023-08-06T13:16:09;0.22;;;0.22;;
30763;SDS011;17497;51.476;7.770;2023-08-06T13:18:52;0.30;;;0.30;;
30763;SDS011;17497;51.476;7.770;2023-08-06T13:21:18;0.30;;;0.30;;
30763;SDS011;17497;51.476;7.770;2023-08-06T13:23:45;0.30;;;0.30;;
30763;SDS011;17497;51.476;7.770;2023-08-06T13:26:14;0.30;;;0.30;;
30763;SDS011;17497;51.476;7.770;2023-08-06T13:28:45;0.40;;;0.40;;
30763;SDS011;17497;51.476;7.770;2023-08-06T13:31:13;0.40;;;0.40;;
30763;SDS011;17497;51.476;7.770;2023-08-06T13:33:40;0.43;;;0.43;;
30763;SDS011;17497;51.476;7.770;2023-08-06T13:36:07;0.45;;;0.45;;
30763;SDS011;17497;51.476;7.770;2023-08-06T13:38:34;0.50;;;0.50;;
30763;SDS011;17497;51.476;7.770;2023-08-06T13:43:29;0.50;;;0.50;;
30763;SDS011;17497;51.476;7.770;2023-08-06T13:45:59;0.50;;;0.50;;
30763;SDS011;17497;51.476;7.770;2023-08-06T13:48:28;0.50;;;0.50;;
30763;SDS011;17497;51.476;7.770;2023-08-06T13:50:55;0.50;;;0.50;;
30763;SDS011;17497;51.476;7.770;2023-08-06T13:53:22;0.50;;;0.50;;
30763;SDS011;17497;51.476;7.770;2023-08-06T13:55:49;0.55;;;0.55;;
30763;SDS011;17497;51.476;7.770;2023-08-06T13:58:16;0.50;;;0.50;;
30763;SDS011;17497;51.476;7.770;2023-08-06T14:00:43;0.50;;;0.50;;
30763;SDS011;17497;51.476;7.770;2023-08-06T14:03:10;0.60;;;0.60;;
30763;SDS011;17497;51.476;7.770;2023-08-06T14:08:05;0.50;;;0.50;;
30763;SDS011;17497;51.476;7.770;2023-08-06T14:10:32;0.50;;;0.50;;
30763;SDS011;17497;51.476;7.770;2023-08-06T14:13:02;0.50;;;0.50;;
30763;SDS011;17497;51.476;7.770;2023-08-06T14:15:36;0.50;;;0.50;;
30763;SDS011;17497;51.476;7.770;2023-08-06T14:18:09;0.50;;;0.50;;
30763;SDS011;17497;51.476;7.770;2023-08-06T14:20:36;0.50;;;0.50;;
30763;SDS011;17497;51.476;7.770;2023-08-06T14:23:12;0.40;;;0.40;;
30763;SDS011;17497;51.476;7.770;2023-08-06T14:25:43;0.50;;;0.50;;
30763;SDS011;17497;51.476;7.770;2023-08-06T14:28:10;0.40;;;0.40;;
30763;SDS011;17497;51.476;7.770;2023-08-06T14:30:52;0.40;;;0.40;;
30763;SDS011;17497;51.476;7.770;2023-08-06T14:33:23;0.55;;;0.55;;
30763;SDS011;17497;51.476;7.770;2023-08-06T14:35:54;0.55;;;0.55;;
30763;SDS011;17497;51.476;7.770;2023-08-06T14:38:21;0.40;;;0.40;;
30763;SDS011;17497;51.476;7.770;2023-08-06T14:41:25;0.60;;;0.60;;
30763;SDS011;17497;51.476;7.770;2023-08-06T14:43:52;0.50;;;0.50;;
30763;SDS011;17497;51.476;7.770;2023-08-06T14:46:20;0.50;;;0.50;;
30763;SDS011;17497;51.476;7.770;2023-08-06T14:48:47;0.50;;;0.50;;
30763;SDS011;17497;51.476;7.770;2023-08-06T14:51:14;0.50;;;0.50;;
30763;SDS011;17497;51.476;7.770;2023-08-06T14:53:41;0.50;;;0.50;;
30763;SDS011;17497;51.476;7.770;2023-08-06T14:56:08;0.50;;;0.50;;
30763;SDS011;17497;51.476;7.770;2023-08-06T14:58:35;0.50;;;0.50;;
30763;SDS011;17497;51.476;7.770;2023-08-06T15:01:02;0.40;;;0.40;;
30763;SDS011;17497;51.476;7.770;2023-08-06T15:03:29;0.60;;;0.60;;
30763;SDS011;17497;51.476;7.770;2023-08-06T15:05:57;0.50;;;0.50;;
30763;SDS011;17497;51.476;7.770;2023-08-06T15:08:24;0.55;;;0.55;;
30763;SDS011;17497;51.476;7.770;2023-08-06T15:10:52;0.43;;;0.43;;
30763;SDS011;17497;51.476;7.770;2023-08-06T15:13:19;0.60;;;0.60;;
30763;SDS011;17497;51.476;7.770;2023-08-06T15:15:47;0.50;;;0.50;;
30763;SDS011;17497;51.476;7.770;2023-08-06T15:18:14;0.55;;;0.55;;
30763;SDS011;17497;51.476;7.770;2023-08-06T15:20:41;0.40;;;0.40;;
30763;SDS011;17497;51.476;7.770;2023-08-06T15:23:08;0.50;;;0.50;;
30763;SDS011;17497;51.476;7.770;2023-08-06T15:25:34;0.50;;;0.50;;
30763;SDS011;17497;51.476;7.770;2023-08-06T15:28:01;0.60;;;0.60;;
30763;SDS011;17497;51.476;7.770;2023-08-06T15:30:28;0.43;;;0.43;;
30763;SDS011;17497;51.476;7.770;2023-08-06T15:32:55;0.50;;;0.50;;
30763;SDS011;17497;51.476;7.770;2023-08-06T15:35:22;0.50;;;0.50;;
30763;SDS011;17497;51.476;7.770;2023-08-06T15:37:49;0.50;;;0.50;;
30763;SDS011;17497;51.476;7.770;2023-08-06T15:40:16;0.40;;;0.40;;
30763;SDS011;17497;51.476;7.770;2023-08-06T15:42:43;0.60;;;0.60;;
30763;SDS011;17497;51.476;7.770;2023-08-06T15:45:10;0.40;;;0.40;;
30763;SDS011;17497;51.476;7.770;2023-08-06T15:47:37;0.50;;;0.50;;
30763;SDS011;17497;51.476;7.770;2023-08-06T15:50:07;0.50;;;0.50;;
30763;SDS011;17497;51.476;7.770;2023-08-06T15:52:37;0.50;;;0.50;;
30763;SDS011;17497;51.476;7.770;2023-08-06T15:55:04;0.40;;;0.40;;
30763;SDS011;17497;51.476;7.770;2023-08-06T15:57:33;0.40;;;0.40;;
30763;SDS011;17497;51.476;7.770;2023-08-06T16:00:02;0.50;;;0.50;;
30763;SDS011;17497;51.476;7.770;2023-08-06T16:02:31;0.50;;;0.50;;
30763;SDS011;17497;51.476;7.770;2023-08-06T16:04:58;0.47;;;0.47;;
30763;SDS011;17497;51.476;7.770;2023-08-06T16:07:26;0.60;;;0.60;;